createdAt,value
2018-11-29T00:00:03.247Z,0
2018-11-29T00:01:03.488Z,0
2018-11-29T00:02:03.228Z,0
2018-11-29T00:03:03.450Z,0
2018-11-29T00:04:02.693Z,0
2018-11-29T00:05:03.164Z,0
2018-11-29T00:06:03.429Z,0
2018-11-29T00:07:03.373Z,0
2018-11-29T00:08:03.094Z,0
2018-11-29T00:09:02.861Z,0
2018-11-29T00:10:03.067Z,0
2018-11-29T00:11:03.050Z,0
2018-11-29T00:12:03.273Z,0
2018-11-29T00:13:03.263Z,0
2018-11-29T00:14:02.985Z,0
2018-11-29T00:15:02.958Z,0
2018-11-29T00:16:02.974Z,0
2018-11-29T00:17:02.437Z,0
2018-11-29T00:18:02.931Z,0
2018-11-29T00:19:02.643Z,0
2018-11-29T00:20:02.873Z,0
2018-11-29T00:21:02.845Z,0
2018-11-29T00:22:03.359Z,0
2018-11-29T00:23:03.055Z,0
2018-11-29T00:24:03.042Z,0
2018-11-29T00:25:02.530Z,0
2018-11-29T00:26:02.782Z,0
2018-11-29T00:27:02.742Z,0
2018-11-29T00:28:02.970Z,0
2018-11-29T00:29:02.688Z,0
2018-11-29T00:30:03.188Z,0
2018-11-29T00:31:02.647Z,0
2018-11-29T00:32:02.899Z,0
2018-11-29T00:33:02.877Z,0
2018-11-29T00:34:02.596Z,0
2018-11-29T00:35:02.583Z,0
2018-11-29T00:36:02.821Z,0
2018-11-29T00:37:02.848Z,0
2018-11-29T00:38:02.789Z,0
2018-11-29T00:39:02.502Z,0
2018-11-29T00:40:02.985Z,0
2018-11-29T00:41:02.204Z,0
2018-11-29T00:42:02.181Z,0
2018-11-29T00:43:02.173Z,0
2018-11-29T00:44:02.403Z,0
2018-11-29T00:45:02.632Z,0
2018-11-29T00:46:02.628Z,0
2018-11-29T00:47:02.611Z,0
2018-11-29T00:48:02.842Z,0
2018-11-29T00:49:02.326Z,0
2018-11-29T00:50:02.824Z,0
2018-11-29T00:51:02.272Z,0
2018-11-29T00:52:02.509Z,0
2018-11-29T00:53:02.227Z,0
2018-11-29T00:54:02.468Z,0
2018-11-29T00:55:02.441Z,0
2018-11-29T00:56:01.920Z,0
2018-11-29T00:57:02.415Z,0
2018-11-29T00:58:02.386Z,0
2018-11-29T00:59:02.123Z,0
2018-11-29T01:00:01.845Z,0
2018-11-29T01:01:01.823Z,0
2018-11-29T01:02:02.574Z,0
2018-11-29T01:03:01.792Z,0
2018-11-29T01:04:02.013Z,0
2018-11-29T01:05:01.987Z,0
2018-11-29T01:06:02.245Z,0
2018-11-29T01:07:02.218Z,0
2018-11-29T01:08:02.440Z,0
2018-11-29T01:09:01.928Z,0
2018-11-29T01:10:02.148Z,0
2018-11-29T01:11:01.877Z,0
2018-11-29T01:12:01.874Z,0
2018-11-29T01:13:01.631Z,0
2018-11-29T01:14:02.082Z,0
2018-11-29T01:15:02.062Z,0
2018-11-29T01:16:02.052Z,0
2018-11-29T01:17:01.510Z,0
2018-11-29T01:18:02.473Z,0
2018-11-29T01:19:01.776Z,0
2018-11-29T01:20:01.968Z,0
2018-11-29T01:21:01.686Z,0
2018-11-29T01:22:01.676Z,0
2018-11-29T01:23:01.649Z,0
2018-11-29T01:24:01.897Z,0
2018-11-29T01:25:01.630Z,0
2018-11-29T01:26:01.607Z,0
2018-11-29T01:27:02.076Z,0
2018-11-29T01:28:01.571Z,0
2018-11-29T01:29:01.784Z,0
2018-11-29T01:30:01.795Z,0
2018-11-29T01:31:01.761Z,0
2018-11-29T01:32:01.728Z,0
2018-11-29T01:33:01.499Z,0
2018-11-29T01:34:01.437Z,0
2018-11-29T01:35:01.934Z,0
2018-11-29T01:36:01.158Z,0
2018-11-29T01:37:01.643Z,0
2018-11-29T01:38:01.377Z,0
2018-11-29T01:39:01.348Z,0
2018-11-29T01:40:01.331Z,0
2018-11-29T01:41:01.569Z,0
2018-11-29T01:42:01.562Z,0
2018-11-29T01:43:01.785Z,0
2018-11-29T01:44:01.781Z,0
2018-11-29T01:45:01.028Z,0
2018-11-29T01:46:00.956Z,0
2018-11-29T01:47:00.709Z,0
2018-11-29T01:48:01.431Z,0
2018-11-29T01:49:01.419Z,0
2018-11-29T01:50:01.390Z,0
2018-11-29T01:51:00.875Z,0
2018-11-29T01:52:01.121Z,0
2018-11-29T01:53:01.094Z,0
2018-11-29T01:54:01.335Z,0
2018-11-29T01:55:01.305Z,0
2018-11-29T01:56:01.295Z,0
2018-11-29T01:57:01.518Z,0
2018-11-29T01:58:01.507Z,0
2018-11-29T01:59:00.751Z,0
2018-11-29T02:00:00.951Z,0
2018-11-29T02:01:01.190Z,0
2018-11-29T02:02:01.181Z,0
2018-11-29T02:03:00.931Z,0
2018-11-29T02:04:01.144Z,0
2018-11-29T02:05:00.858Z,0
2018-11-29T02:06:00.590Z,0
2018-11-29T02:07:00.821Z,0
2018-11-29T02:08:01.070Z,0
2018-11-29T02:09:00.526Z,0
2018-11-29T02:10:00.531Z,0
2018-11-29T02:11:00.788Z,0
2018-11-29T02:12:00.758Z,0
2018-11-29T02:13:00.725Z,0
2018-11-29T02:14:00.447Z,0
2018-11-29T02:15:00.436Z,0
2018-11-29T02:16:00.657Z,0
2018-11-29T02:17:01.149Z,0
2018-11-29T02:18:00.355Z,0
2018-11-29T02:19:00.854Z,0
2018-11-29T02:20:00.578Z,0
2018-11-29T02:21:00.567Z,0
2018-11-29T02:22:00.546Z,0
2018-11-29T02:23:00.271Z,0
2018-11-29T02:24:00.823Z,0
2018-11-29T02:25:00.485Z,0
2018-11-29T02:26:00.731Z,0
2018-11-29T02:27:00.958Z,0
2018-11-29T02:28:00.688Z,0
2018-11-29T02:29:00.714Z,0
2018-11-29T02:30:00.131Z,0
2018-11-29T02:31:00.128Z,0
2018-11-29T02:32:00.872Z,0
2018-11-29T02:33:00.596Z,0
2018-11-29T02:34:00.579Z,0
2018-11-29T02:35:00.564Z,0
2018-11-29T02:36:00.828Z,0
2018-11-29T02:37:00.796Z,0
2018-11-29T02:38:00.240Z,0
2018-11-29T02:39:00.521Z,0
2018-11-29T02:40:00.513Z,0
2018-11-29T02:41:00.470Z,0
2018-11-29T02:41:59.984Z,0
2018-11-29T02:43:00.440Z,0
2018-11-29T02:44:00.138Z,0
2018-11-29T02:45:00.136Z,0
2018-11-29T02:45:59.931Z,0
2018-11-29T02:47:00.104Z,0
2018-11-29T02:48:00.327Z,0
2018-11-29T02:49:00.309Z,0
2018-11-29T02:49:59.780Z,0
2018-11-29T02:51:00.546Z,0
2018-11-29T02:51:59.988Z,0
2018-11-29T02:53:00.483Z,0
2018-11-29T02:54:00.209Z,0
2018-11-29T02:55:00.218Z,0
2018-11-29T02:55:59.974Z,0
2018-11-29T02:57:00.170Z,0
2018-11-29T02:57:59.870Z,0
2018-11-29T02:58:59.864Z,0
2018-11-29T03:00:00.102Z,0
2018-11-29T03:00:59.813Z,0
2018-11-29T03:02:00.050Z,0
2018-11-29T03:03:00.061Z,0
2018-11-29T03:03:59.549Z,0
2018-11-29T03:05:00.343Z,0
2018-11-29T03:05:59.732Z,0
2018-11-29T03:06:59.700Z,0
2018-11-29T03:07:59.692Z,0
2018-11-29T03:08:59.947Z,0
2018-11-29T03:10:00.210Z,0
2018-11-29T03:10:59.631Z,0
2018-11-29T03:12:00.122Z,0
2018-11-29T03:13:00.109Z,0
2018-11-29T03:13:59.880Z,0
2018-11-29T03:14:59.865Z,0
2018-11-29T03:15:59.795Z,0
2018-11-29T03:16:59.549Z,0
2018-11-29T03:17:59.976Z,0
2018-11-29T03:18:59.771Z,0
2018-11-29T03:19:59.734Z,0
2018-11-29T03:20:59.454Z,0
2018-11-29T03:21:59.459Z,0
2018-11-29T03:22:59.414Z,0
2018-11-29T03:23:59.397Z,0
2018-11-29T03:24:59.388Z,0
2018-11-29T03:25:59.355Z,0
2018-11-29T03:26:59.601Z,0
2018-11-29T03:27:59.349Z,0
2018-11-29T03:28:59.040Z,0
2018-11-29T03:29:59.285Z,0
2018-11-29T03:30:59.312Z,0
2018-11-29T03:31:59.788Z,0
2018-11-29T03:32:59.800Z,0
2018-11-29T03:33:59.489Z,0
2018-11-29T03:34:58.935Z,0
2018-11-29T03:35:59.418Z,0
2018-11-29T03:36:59.418Z,0
2018-11-29T03:37:59.704Z,0
2018-11-29T03:38:59.117Z,0
2018-11-29T03:39:59.100Z,0
2018-11-29T03:40:59.584Z,0
2018-11-29T03:41:59.561Z,0
2018-11-29T03:42:59.298Z,0
2018-11-29T03:43:59.277Z,0
2018-11-29T03:44:59.011Z,0
2018-11-29T03:45:59.234Z,0
2018-11-29T03:46:59.227Z,0
2018-11-29T03:47:58.964Z,0
2018-11-29T03:48:58.669Z,0
2018-11-29T03:49:58.910Z,0
2018-11-29T03:50:59.151Z,0
2018-11-29T03:51:58.901Z,0
2018-11-29T03:52:58.602Z,0
2018-11-29T03:53:59.353Z,0
2018-11-29T03:54:59.329Z,0
2018-11-29T03:55:59.325Z,0
2018-11-29T03:56:59.318Z,0
2018-11-29T03:57:59.282Z,0
2018-11-29T03:58:59.024Z,0
2018-11-29T03:59:58.982Z,0
2018-11-29T04:00:59.002Z,0
2018-11-29T04:01:59.204Z,0
2018-11-29T04:02:58.469Z,0
2018-11-29T04:03:58.683Z,0
2018-11-29T04:04:58.646Z,0
2018-11-29T04:05:59.128Z,0
2018-11-29T04:06:59.110Z,0
2018-11-29T04:07:58.650Z,0
2018-11-29T04:08:59.070Z,0
2018-11-29T04:09:58.871Z,0
2018-11-29T04:10:58.615Z,0
2018-11-29T04:11:59.025Z,0
2018-11-29T04:12:58.493Z,0
2018-11-29T04:13:58.218Z,0
2018-11-29T04:14:58.697Z,0
2018-11-29T04:15:58.698Z,0
2018-11-29T04:16:58.664Z,0
2018-11-29T04:17:58.441Z,0
2018-11-29T04:18:58.382Z,0
2018-11-29T04:19:58.880Z,0
2018-11-29T04:20:58.345Z,0
2018-11-29T04:21:58.571Z,0
2018-11-29T04:22:58.389Z,0
2018-11-29T04:23:58.784Z,0
2018-11-29T04:24:58.761Z,0
2018-11-29T04:25:59.493Z,0
2018-11-29T04:26:58.739Z,0
2018-11-29T04:27:58.728Z,0
2018-11-29T04:28:58.200Z,0
2018-11-29T04:29:58.693Z,0
2018-11-29T04:30:58.473Z,0
2018-11-29T04:31:58.385Z,0
2018-11-29T04:32:58.123Z,0
2018-11-29T04:33:58.346Z,0
2018-11-29T04:34:58.339Z,0
2018-11-29T04:35:58.334Z,0
2018-11-29T04:36:58.326Z,0
2018-11-29T04:37:58.035Z,0
2018-11-29T04:38:58.030Z,0
2018-11-29T04:39:57.979Z,0
2018-11-29T04:40:57.716Z,0
2018-11-29T04:41:58.205Z,0
2018-11-29T04:42:58.437Z,0
2018-11-29T04:43:57.905Z,0
2018-11-29T04:44:57.900Z,0
2018-11-29T04:45:58.131Z,0
2018-11-29T04:46:58.144Z,0
2018-11-29T04:47:58.115Z,0
2018-11-29T04:48:58.338Z,0
2018-11-29T04:49:57.815Z,0
2018-11-29T04:50:58.998Z,0
2018-11-29T04:51:58.024Z,0
2018-11-29T04:52:57.771Z,0
2018-11-29T04:53:57.731Z,0
2018-11-29T04:54:57.989Z,0
2018-11-29T04:55:57.470Z,0
2018-11-29T04:56:57.943Z,0
2018-11-29T04:57:57.391Z,0
2018-11-29T04:58:57.639Z,0
2018-11-29T04:59:58.117Z,0
2018-11-29T05:00:57.348Z,0
2018-11-29T05:01:58.098Z,0
2018-11-29T05:02:58.070Z,0
2018-11-29T05:03:57.821Z,0
2018-11-29T05:04:58.031Z,0
2018-11-29T05:05:57.516Z,0
2018-11-29T05:06:57.735Z,0
2018-11-29T05:07:57.728Z,0
2018-11-29T05:08:57.477Z,0
2018-11-29T05:09:57.176Z,0
2018-11-29T05:10:57.929Z,0
2018-11-29T05:11:57.419Z,0
2018-11-29T05:12:57.921Z,0
2018-11-29T05:13:57.620Z,0
2018-11-29T05:14:57.609Z,0
2018-11-29T05:15:57.851Z,0
2018-11-29T05:16:57.565Z,0
2018-11-29T05:17:57.468Z,0
2018-11-29T05:18:57.255Z,0
2018-11-29T05:19:57.745Z,0
2018-11-29T05:20:57.515Z,0
2018-11-29T05:21:57.741Z,0
2018-11-29T05:22:57.195Z,0
2018-11-29T05:23:57.214Z,0
2018-11-29T05:24:57.676Z,0
2018-11-29T05:25:57.124Z,0
2018-11-29T05:26:57.119Z,0
2018-11-29T05:27:57.110Z,0
2018-11-29T05:28:57.374Z,0
2018-11-29T05:29:57.305Z,0
2018-11-29T05:30:57.307Z,0
2018-11-29T05:31:57.021Z,0
2018-11-29T05:32:56.740Z,0
2018-11-29T05:33:56.800Z,0
2018-11-29T05:34:57.210Z,0
2018-11-29T05:35:56.934Z,0
2018-11-29T05:36:57.194Z,0
2018-11-29T05:37:56.941Z,0
2018-11-29T05:38:57.137Z,0
2018-11-29T05:39:56.912Z,0
2018-11-29T05:40:56.842Z,0
2018-11-29T05:41:57.339Z,0
2018-11-29T05:42:56.807Z,0
2018-11-29T05:43:56.795Z,0
2018-11-29T05:44:57.065Z,0
2018-11-29T05:45:56.494Z,0
2018-11-29T05:46:56.737Z,0
2018-11-29T05:47:56.971Z,0
2018-11-29T05:48:57.211Z,0
2018-11-29T05:49:56.682Z,0
2018-11-29T05:50:56.952Z,0
2018-11-29T05:51:56.386Z,0
2018-11-29T05:52:56.877Z,0
2018-11-29T05:53:56.342Z,0
2018-11-29T05:54:56.596Z,0
2018-11-29T05:55:56.569Z,0
2018-11-29T05:56:56.590Z,0
2018-11-29T05:57:56.273Z,0
2018-11-29T05:58:56.762Z,0
2018-11-29T05:59:56.487Z,0
2018-11-29T06:00:56.758Z,0
2018-11-29T06:01:56.463Z,0
2018-11-29T06:02:56.430Z,0
2018-11-29T06:03:56.429Z,0
2018-11-29T06:04:56.654Z,0
2018-11-29T06:05:56.883Z,0
2018-11-29T06:06:55.849Z,0
2018-11-29T06:07:56.353Z,0
2018-11-29T06:08:56.576Z,0
2018-11-29T06:09:56.928Z,0
2018-11-29T06:10:56.794Z,0
2018-11-29T06:11:56.305Z,0
2018-11-29T06:12:56.505Z,0
2018-11-29T06:13:56.488Z,0
2018-11-29T06:14:56.500Z,0
2018-11-29T06:15:56.452Z,0
2018-11-29T06:16:56.426Z,0
2018-11-29T06:17:56.321Z,0
2018-11-29T06:18:56.154Z,0
2018-11-29T06:19:55.615Z,0
2018-11-29T06:20:56.149Z,0
2018-11-29T06:21:56.343Z,0
2018-11-29T06:22:56.575Z,0
2018-11-29T06:23:56.053Z,0
2018-11-29T06:24:56.031Z,0
2018-11-29T06:25:56.013Z,0
2018-11-29T06:26:56.255Z,0
2018-11-29T06:27:56.263Z,0
2018-11-29T06:28:56.257Z,0
2018-11-29T06:29:55.948Z,0
2018-11-29T06:30:56.174Z,0
2018-11-29T06:31:56.160Z,0
2018-11-29T06:32:56.973Z,0
2018-11-29T06:33:56.149Z,0
2018-11-29T06:34:56.136Z,0
2018-11-29T06:35:55.844Z,0
2018-11-29T06:36:56.378Z,0
2018-11-29T06:37:55.814Z,0
2018-11-29T06:38:55.778Z,0
2018-11-29T06:39:55.801Z,0
2018-11-29T06:40:56.056Z,0
2018-11-29T06:41:56.231Z,0
2018-11-29T06:42:55.957Z,0
2018-11-29T06:43:55.428Z,0
2018-11-29T06:44:55.162Z,0
2018-11-29T06:45:55.901Z,0
2018-11-29T06:46:55.633Z,0
2018-11-29T06:47:55.361Z,0
2018-11-29T06:48:55.879Z,0
2018-11-29T06:49:56.100Z,0
2018-11-29T06:50:55.574Z,0
2018-11-29T06:51:55.804Z,0
2018-11-29T06:52:56.048Z,0
2018-11-29T06:53:55.764Z,0
2018-11-29T06:54:55.488Z,0
2018-11-29T06:55:55.718Z,0
2018-11-29T06:56:55.956Z,0
2018-11-29T06:57:55.189Z,0
2018-11-29T06:58:54.917Z,0
2018-11-29T06:59:55.959Z,0
2018-11-29T07:00:55.637Z,0
2018-11-29T07:01:55.623Z,0
2018-11-29T07:02:55.365Z,0
2018-11-29T07:03:55.588Z,0
2018-11-29T07:04:55.813Z,0
2018-11-29T07:05:55.605Z,0
2018-11-29T07:06:55.525Z,0
2018-11-29T07:07:55.759Z,0
2018-11-29T07:08:54.997Z,0
2018-11-29T07:09:55.468Z,0
2018-11-29T07:10:55.453Z,0
2018-11-29T07:11:55.182Z,0
2018-11-29T07:12:55.174Z,0
2018-11-29T07:13:55.417Z,0
2018-11-29T07:14:54.865Z,0
2018-11-29T07:15:55.110Z,0
2018-11-29T07:16:55.343Z,0
2018-11-29T07:17:55.745Z,0
2018-11-29T07:18:54.801Z,0
2018-11-29T07:19:55.036Z,0
2018-11-29T07:20:55.269Z,0
2018-11-29T07:21:55.511Z,0
2018-11-29T07:22:55.502Z,0
2018-11-29T07:23:54.955Z,0
2018-11-29T07:24:54.677Z,0
2018-11-29T07:25:54.924Z,0
2018-11-29T07:26:55.171Z,0
2018-11-29T07:27:55.136Z,5
2018-11-29T07:28:55.133Z,5
2018-11-29T07:29:55.105Z,5
2018-11-29T07:30:54.834Z,5
2018-11-29T07:31:55.067Z,5
2018-11-29T07:32:54.291Z,5
2018-11-29T07:33:55.280Z,5
2018-11-29T07:34:54.761Z,5
2018-11-29T07:35:54.779Z,5
2018-11-29T07:36:54.733Z,5
2018-11-29T07:37:54.977Z,5
2018-11-29T07:38:54.949Z,5
2018-11-29T07:39:54.944Z,5
2018-11-29T07:40:55.161Z,5
2018-11-29T07:41:54.382Z,5
2018-11-29T07:42:54.669Z,10
2018-11-29T07:43:54.363Z,10
2018-11-29T07:44:55.087Z,10
2018-11-29T07:45:54.819Z,10
2018-11-29T07:46:54.590Z,10
2018-11-29T07:47:55.044Z,10
2018-11-29T07:48:54.757Z,10
2018-11-29T07:49:54.488Z,10
2018-11-29T07:50:54.460Z,15
2018-11-29T07:51:54.956Z,15
2018-11-29T07:52:54.173Z,15
2018-11-29T07:53:54.701Z,15
2018-11-29T07:54:54.394Z,15
2018-11-29T07:55:54.882Z,15
2018-11-29T07:56:53.849Z,15
2018-11-29T07:57:54.375Z,15
2018-11-29T07:58:59.703Z,15
2018-11-29T07:59:54.586Z,20
2018-11-29T08:00:54.286Z,20
2018-11-29T08:01:54.784Z,20
2018-11-29T08:02:54.777Z,20
2018-11-29T08:03:53.985Z,25
2018-11-29T08:04:54.740Z,25
2018-11-29T08:05:54.711Z,30
2018-11-29T08:06:53.928Z,30
2018-11-29T08:07:56.511Z,35
2018-11-29T08:08:54.444Z,35
2018-11-29T08:09:54.387Z,35
2018-11-29T08:10:54.366Z,35
2018-11-29T08:11:54.127Z,35
2018-11-29T08:12:54.325Z,35
2018-11-29T08:13:54.371Z,30
2018-11-29T08:14:54.039Z,30
2018-11-29T08:15:54.014Z,30
2018-11-29T08:16:54.009Z,30
2018-11-29T08:17:54.255Z,30
2018-11-29T08:18:54.479Z,30
2018-11-29T08:19:54.203Z,30
2018-11-29T08:20:54.198Z,30
2018-11-29T08:21:53.932Z,35
2018-11-29T08:22:54.149Z,35
2018-11-29T08:23:54.125Z,35
2018-11-29T08:24:54.382Z,35
2018-11-29T08:25:53.843Z,35
2018-11-29T08:26:54.075Z,30
2018-11-29T08:27:54.068Z,30
2018-11-29T08:28:53.795Z,30
2018-11-29T08:29:54.028Z,30
2018-11-29T08:30:53.501Z,30
2018-11-29T08:31:54.009Z,25
2018-11-29T08:32:54.234Z,30
2018-11-29T08:33:53.698Z,30
2018-11-29T08:34:53.489Z,30
2018-11-29T08:35:53.432Z,30
2018-11-29T08:36:53.896Z,30
2018-11-29T08:37:53.625Z,30
2018-11-29T08:38:53.618Z,35
2018-11-29T08:39:53.589Z,35
2018-11-29T08:40:54.093Z,35
2018-11-29T08:41:53.057Z,35
2018-11-29T08:42:53.853Z,40
2018-11-29T08:43:53.800Z,40
2018-11-29T08:44:54.024Z,40
2018-11-29T08:45:53.749Z,40
2018-11-29T08:46:53.268Z,40
2018-11-29T08:47:53.730Z,40
2018-11-29T08:48:53.462Z,35
2018-11-29T08:49:53.427Z,35
2018-11-29T08:50:53.151Z,35
2018-11-29T08:51:53.416Z,40
2018-11-29T08:52:53.622Z,45
2018-11-29T08:53:53.606Z,45
2018-11-29T08:54:53.842Z,45
2018-11-29T08:55:53.858Z,50
2018-11-29T08:56:53.815Z,50
2018-11-29T08:57:53.799Z,50
2018-11-29T08:58:53.255Z,50
2018-11-29T08:59:53.750Z,45
2018-11-29T09:00:53.483Z,45
2018-11-29T09:01:53.460Z,40
2018-11-29T09:02:52.934Z,40
2018-11-29T09:03:53.421Z,40
2018-11-29T09:04:53.164Z,40
2018-11-29T09:05:53.664Z,45
2018-11-29T09:06:53.120Z,40
2018-11-29T09:07:53.351Z,40
2018-11-29T09:08:53.339Z,40
2018-11-29T09:09:53.110Z,40
2018-11-29T09:10:53.061Z,40
2018-11-29T09:11:54.732Z,45
2018-11-29T09:12:53.280Z,45
2018-11-29T09:13:53.254Z,45
2018-11-29T09:14:52.981Z,50
2018-11-29T09:15:53.469Z,50
2018-11-29T09:16:53.482Z,55
2018-11-29T09:17:53.399Z,55
2018-11-29T09:18:52.922Z,50
2018-11-29T09:19:52.667Z,50
2018-11-29T09:20:52.887Z,40
2018-11-29T09:21:52.604Z,40
2018-11-29T09:22:52.590Z,40
2018-11-29T09:23:53.334Z,45
2018-11-29T09:24:53.053Z,45
2018-11-29T09:25:52.615Z,45
2018-11-29T09:26:53.279Z,50
2018-11-29T09:27:53.018Z,50
2018-11-29T09:28:52.739Z,50
2018-11-29T09:29:52.985Z,50
2018-11-29T09:30:52.452Z,50
2018-11-29T09:31:52.942Z,50
2018-11-29T09:32:53.274Z,50
2018-11-29T09:33:52.924Z,50
2018-11-29T09:34:52.889Z,55
2018-11-29T09:35:52.869Z,60
2018-11-29T09:36:52.615Z,65
2018-11-29T09:37:52.851Z,65
2018-11-29T09:38:53.081Z,65
2018-11-29T09:39:52.571Z,60
2018-11-29T09:40:53.054Z,55
2018-11-29T09:41:52.262Z,50
2018-11-29T09:42:52.252Z,50
2018-11-29T09:43:52.743Z,50
2018-11-29T09:44:52.728Z,55
2018-11-29T09:45:52.700Z,55
2018-11-29T09:46:52.687Z,55
2018-11-29T09:47:52.674Z,60
2018-11-29T09:48:52.149Z,60
2018-11-29T09:49:52.420Z,60
2018-11-29T09:50:52.402Z,65
2018-11-29T09:51:52.366Z,65
2018-11-29T09:52:52.086Z,65
2018-11-29T09:53:52.577Z,60
2018-11-29T09:54:52.308Z,60
2018-11-29T09:55:52.531Z,55
2018-11-29T09:56:52.270Z,55
2018-11-29T09:57:52.508Z,50
2018-11-29T09:58:53.696Z,50
2018-11-29T09:59:52.471Z,55
2018-11-29T10:00:52.467Z,60
2018-11-29T10:01:52.028Z,60
2018-11-29T10:02:52.203Z,65
2018-11-29T10:03:52.403Z,65
2018-11-29T10:04:52.576Z,65
2018-11-29T10:05:52.653Z,65
2018-11-29T10:06:52.357Z,65
2018-11-29T10:07:52.086Z,60
2018-11-29T10:08:52.314Z,55
2018-11-29T10:09:52.363Z,55
2018-11-29T10:10:52.282Z,55
2018-11-29T10:11:52.011Z,55
2018-11-29T10:12:51.742Z,55
2018-11-29T10:13:55.372Z,55
2018-11-29T10:14:52.758Z,60
2018-11-29T10:15:51.938Z,65
2018-11-29T10:16:52.187Z,70
2018-11-29T10:17:52.167Z,75
2018-11-29T10:18:52.412Z,80
2018-11-29T10:19:52.161Z,85
2018-11-29T10:20:51.855Z,80
2018-11-29T10:21:51.847Z,80
2018-11-29T10:22:52.329Z,80
2018-11-29T10:23:51.802Z,80
2018-11-29T10:24:52.344Z,75
2018-11-29T10:25:51.508Z,75
2018-11-29T10:26:51.753Z,70
2018-11-29T10:27:51.756Z,70
2018-11-29T10:28:52.270Z,65
2018-11-29T10:29:51.950Z,65
2018-11-29T10:30:51.942Z,65
2018-11-29T10:31:51.913Z,60
2018-11-29T10:32:52.209Z,60
2018-11-29T10:33:51.890Z,60
2018-11-29T10:34:52.126Z,60
2018-11-29T10:35:58.641Z,65
2018-11-29T10:36:51.839Z,70
2018-11-29T10:37:51.821Z,75
2018-11-29T10:38:51.574Z,75
2018-11-29T10:39:51.548Z,75
2018-11-29T10:40:51.516Z,75
2018-11-29T10:41:51.497Z,75
2018-11-29T10:42:51.740Z,70
2018-11-29T10:43:51.713Z,70
2018-11-29T10:44:51.735Z,70
2018-11-29T10:45:51.433Z,65
2018-11-29T10:46:51.665Z,65
2018-11-29T10:47:57.333Z,60
2018-11-29T10:48:51.890Z,55
2018-11-29T10:49:51.708Z,55
2018-11-29T10:50:51.437Z,55
2018-11-29T10:51:51.324Z,55
2018-11-29T10:52:51.333Z,55
2018-11-29T10:53:51.042Z,50
2018-11-29T10:54:51.088Z,50
2018-11-29T10:55:51.767Z,50
2018-11-29T10:56:51.754Z,50
2018-11-29T10:57:51.249Z,50
2018-11-29T10:58:51.211Z,50
2018-11-29T10:59:51.447Z,50
2018-11-29T11:00:51.692Z,50
2018-11-29T11:01:51.674Z,50
2018-11-29T11:02:50.887Z,50
2018-11-29T11:03:51.657Z,50
2018-11-29T11:04:51.372Z,50
2018-11-29T11:05:51.601Z,50
2018-11-29T11:06:51.073Z,50
2018-11-29T11:07:51.314Z,55
2018-11-29T11:08:51.297Z,55
2018-11-29T11:09:51.275Z,55
2018-11-29T11:10:50.754Z,55
2018-11-29T11:11:51.251Z,55
2018-11-29T11:12:51.485Z,50
2018-11-29T11:13:51.215Z,50
2018-11-29T11:14:51.233Z,50
2018-11-29T11:15:50.923Z,50
2018-11-29T11:16:51.441Z,50
2018-11-29T11:17:50.889Z,50
2018-11-29T11:18:51.332Z,55
2018-11-29T11:19:50.857Z,55
2018-11-29T11:20:51.149Z,55
2018-11-29T11:21:50.832Z,50
2018-11-29T11:22:50.808Z,50
2018-11-29T11:23:51.119Z,50
2018-11-29T11:24:50.280Z,50
2018-11-29T11:25:51.005Z,55
2018-11-29T11:26:50.743Z,55
2018-11-29T11:27:50.734Z,55
2018-11-29T11:28:50.718Z,50
2018-11-29T11:29:50.698Z,55
2018-11-29T11:30:50.160Z,60
2018-11-29T11:31:50.988Z,60
2018-11-29T11:32:50.896Z,60
2018-11-29T11:33:50.896Z,60
2018-11-29T11:34:50.860Z,55
2018-11-29T11:35:50.856Z,55
2018-11-29T11:36:51.084Z,50
2018-11-29T11:37:50.553Z,50
2018-11-29T11:38:50.791Z,50
2018-11-29T11:39:50.778Z,50
2018-11-29T11:40:51.028Z,50
2018-11-29T11:41:50.759Z,50
2018-11-29T11:42:50.492Z,50
2018-11-29T11:43:51.188Z,50
2018-11-29T11:44:50.185Z,45
2018-11-29T11:45:50.710Z,45
2018-11-29T11:46:50.159Z,45
2018-11-29T11:47:50.976Z,45
2018-11-29T11:48:50.882Z,40
2018-11-29T11:49:50.625Z,40
2018-11-29T11:50:50.849Z,40
2018-11-29T11:51:50.231Z,40
2018-11-29T11:52:50.564Z,40
2018-11-29T11:53:50.799Z,40
2018-11-29T11:54:50.789Z,40
2018-11-29T11:55:56.075Z,40
2018-11-29T11:56:50.491Z,40
2018-11-29T11:57:50.762Z,45
2018-11-29T11:58:49.733Z,45
2018-11-29T11:59:50.695Z,50
2018-11-29T12:00:50.684Z,70
2018-11-29T12:01:50.660Z,80
2018-11-29T12:02:50.585Z,90
2018-11-29T12:03:50.130Z,90
2018-11-29T12:04:53.269Z,85
2018-11-29T12:05:50.644Z,80
2018-11-29T12:06:50.079Z,75
2018-11-29T12:07:50.324Z,60
2018-11-29T12:08:50.047Z,45
2018-11-29T12:09:50.293Z,35
2018-11-29T12:10:50.005Z,30
2018-11-29T12:11:49.996Z,30
2018-11-29T12:12:50.274Z,30
2018-11-29T12:13:50.231Z,30
2018-11-29T12:14:49.960Z,35
2018-11-29T12:15:50.443Z,35
2018-11-29T12:16:49.917Z,40
2018-11-29T12:17:50.161Z,40
2018-11-29T12:18:50.386Z,40
2018-11-29T12:19:49.975Z,40
2018-11-29T12:20:50.368Z,45
2018-11-29T12:21:50.092Z,45
2018-11-29T12:22:50.073Z,50
2018-11-29T12:23:50.049Z,50
2018-11-29T12:24:50.045Z,50
2018-11-29T12:25:50.024Z,50
2018-11-29T12:26:49.499Z,50
2018-11-29T12:27:50.244Z,50
2018-11-29T12:28:50.229Z,50
2018-11-29T12:29:49.705Z,45
2018-11-29T12:30:50.196Z,45
2018-11-29T12:31:49.940Z,40
2018-11-29T12:32:49.894Z,40
2018-11-29T12:33:49.643Z,40
2018-11-29T12:34:49.951Z,35
2018-11-29T12:35:49.610Z,35
2018-11-29T12:36:49.827Z,35
2018-11-29T12:37:49.587Z,30
2018-11-29T12:38:49.304Z,30
2018-11-29T12:39:49.798Z,25
2018-11-29T12:40:49.255Z,25
2018-11-29T12:41:49.783Z,25
2018-11-29T12:42:49.233Z,25
2018-11-29T12:43:49.802Z,20
2018-11-29T12:44:49.713Z,20
2018-11-29T12:45:49.441Z,20
2018-11-29T12:46:49.427Z,20
2018-11-29T12:47:49.418Z,15
2018-11-29T12:48:49.895Z,15
2018-11-29T12:49:49.640Z,15
2018-11-29T12:50:49.617Z,15
2018-11-29T12:51:51.047Z,15
2018-11-29T12:52:49.900Z,15
2018-11-29T12:53:49.575Z,15
2018-11-29T12:54:49.034Z,15
2018-11-29T12:55:49.542Z,15
2018-11-29T12:56:49.511Z,15
2018-11-29T12:58:04.281Z,15
2018-11-29T12:58:51.729Z,15
2018-11-29T12:59:49.258Z,15
2018-11-29T13:00:49.190Z,15
2018-11-29T13:01:49.157Z,15
2018-11-29T13:02:50.379Z,15
2018-11-29T13:03:49.145Z,15
2018-11-29T13:04:49.374Z,15
2018-11-29T13:05:49.600Z,15
2018-11-29T13:06:49.074Z,15
2018-11-29T13:07:52.802Z,15
2018-11-29T13:08:49.314Z,15
2018-11-29T13:09:48.779Z,15
2018-11-29T13:10:49.570Z,15
2018-11-29T13:11:48.731Z,15
2018-11-29T13:12:48.710Z,15
2018-11-29T13:13:49.221Z,15
2018-11-29T13:14:49.445Z,15
2018-11-29T13:15:48.914Z,15
2018-11-29T13:16:49.410Z,15
2018-11-29T13:17:48.947Z,15
2018-11-29T13:18:49.071Z,15
2018-11-29T13:19:49.158Z,15
2018-11-29T13:20:49.087Z,15
2018-11-29T13:21:49.410Z,15
2018-11-29T13:22:49.057Z,15
2018-11-29T13:23:49.053Z,15
2018-11-29T13:24:49.262Z,15
2018-11-29T13:25:48.775Z,15
2018-11-29T13:26:48.732Z,20
2018-11-29T13:27:48.796Z,20
2018-11-29T13:28:48.690Z,20
2018-11-29T13:29:49.270Z,20
2018-11-29T13:30:49.324Z,20
2018-11-29T13:31:48.977Z,20
2018-11-29T13:32:48.878Z,20
2018-11-29T13:33:49.274Z,20
2018-11-29T13:34:48.841Z,20
2018-11-29T13:35:48.814Z,20
2018-11-29T13:36:48.805Z,20
2018-11-29T13:37:48.524Z,20
2018-11-29T13:38:48.754Z,20
2018-11-29T13:39:48.739Z,20
2018-11-29T13:40:48.926Z,20
2018-11-29T13:41:48.753Z,15
2018-11-29T13:42:48.350Z,15
2018-11-29T13:43:48.412Z,15
2018-11-29T13:44:48.590Z,20
2018-11-29T13:45:48.917Z,15
2018-11-29T13:46:48.359Z,15
2018-11-29T13:47:48.351Z,15
2018-11-29T13:48:48.493Z,15
2018-11-29T13:49:48.549Z,15
2018-11-29T13:50:48.761Z,15
2018-11-29T13:51:48.772Z,15
2018-11-29T13:52:48.516Z,15
2018-11-29T13:53:48.788Z,15
2018-11-29T13:54:48.477Z,15
2018-11-29T13:55:49.722Z,15
2018-11-29T13:56:48.177Z,15
2018-11-29T13:57:48.268Z,15
2018-11-29T13:58:48.664Z,15
2018-11-29T13:59:48.651Z,15
2018-11-29T14:00:48.623Z,15
2018-11-29T14:01:48.099Z,15
2018-11-29T14:02:51.955Z,15
2018-11-29T14:03:48.059Z,15
2018-11-29T14:04:48.033Z,10
2018-11-29T14:05:48.271Z,10
2018-11-29T14:06:48.516Z,10
2018-11-29T14:07:47.979Z,10
2018-11-29T14:08:47.780Z,10
2018-11-29T14:09:48.456Z,10
2018-11-29T14:10:47.940Z,10
2018-11-29T14:11:47.916Z,10
2018-11-29T14:12:48.410Z,10
2018-11-29T14:13:47.918Z,10
2018-11-29T14:14:48.115Z,10
2018-11-29T14:15:48.098Z,10
2018-11-29T14:16:47.879Z,10
2018-11-29T14:17:48.086Z,10
2018-11-29T14:18:47.784Z,10
2018-11-29T14:19:47.769Z,10
2018-11-29T14:20:47.502Z,10
2018-11-29T14:21:53.752Z,10
2018-11-29T14:22:47.985Z,10
2018-11-29T14:23:48.377Z,10
2018-11-29T14:24:47.685Z,10
2018-11-29T14:25:47.917Z,10
2018-11-29T14:26:47.928Z,10
2018-11-29T14:27:47.956Z,10
2018-11-29T14:28:47.861Z,10
2018-11-29T14:29:47.844Z,10
2018-11-29T14:30:47.589Z,10
2018-11-29T14:31:47.812Z,10